Beaver Creek, Canada
Current Conditions -  °F | °C
As of 7:53 PM on Sunday 21 Dec 2014 (Local Time) from PAOR Reporting Station
Overcast Overcast  
Wind Chill: 10°   Ceiling: 1900
Heat Index: 10°   Visibility: 10mi
Dew Point:   Wind: 3mph
Humidity: 84%   Direction: 130°SE
Pressure: 29.44"   Gusts: NA
Location:  62.36°N, 140.87°W
Report Text: PAOR 220353Z 13003KT 10SM OVC019 M12/M14 A2944 RMK AO2 SLP022 T11221144
Loading
Personal Weather Stations






























Interactive Weather Map New forecast layout! Learn more

10-Day Weather Forecast

Advertisements
Track Severe Weather on mobile